createdAt,value
2023-01-03T00:01:58.655Z,12.10
2023-01-03T00:04:26.187Z,12.10
2023-01-03T00:06:54.056Z,12.10
2023-01-03T00:09:23.279Z,12.10
2023-01-03T00:12:11.014Z,12.10
2023-01-03T00:14:41.097Z,12.00
2023-01-03T00:17:09.832Z,12.00
2023-01-03T00:19:41.038Z,12.00
2023-01-03T00:22:09.144Z,11.90
2023-01-03T00:24:36.540Z,11.90
2023-01-03T00:27:04.666Z,11.90
2023-01-03T00:29:32.040Z,11.90
2023-01-03T00:31:59.881Z,11.90
2023-01-03T00:34:27.419Z,11.80
2023-01-03T00:36:55.266Z,11.80
2023-01-03T00:39:23.213Z,11.80
2023-01-03T00:41:50.597Z,11.80
2023-01-03T00:44:18.105Z,11.80
2023-01-03T00:46:45.832Z,11.80
2023-01-03T00:49:13.696Z,11.80
2023-01-03T00:51:42.493Z,11.80
2023-01-03T00:54:12.125Z,11.80
2023-01-03T00:56:43.219Z,11.80
2023-01-03T00:59:11.645Z,11.70
2023-01-03T01:01:46.815Z,11.70
2023-01-03T01:04:21.987Z,11.70
2023-01-03T01:06:52.572Z,11.70
2023-01-03T01:09:31.903Z,11.70
2023-01-03T01:11:59.330Z,11.60
2023-01-03T01:14:28.020Z,11.70
2023-01-03T01:16:58.580Z,11.60
2023-01-03T01:19:31.625Z,11.60
2023-01-03T01:21:59.762Z,11.60
2023-01-03T01:24:27.515Z,11.50
2023-01-03T01:26:55.413Z,11.50
2023-01-03T01:29:22.800Z,11.40
2023-01-03T01:31:50.300Z,11.40
2023-01-03T01:34:18.450Z,11.30
2023-01-03T01:36:47.060Z,11.20
2023-01-03T01:39:18.440Z,11.20
2023-01-03T01:42:05.678Z,11.10
2023-01-03T01:44:55.677Z,11.10
2023-01-03T01:47:40.145Z,11.00
2023-01-03T01:50:22.195Z,10.90
2023-01-03T01:53:07.298Z,10.80
2023-01-03T01:55:42.703Z,10.70
2023-01-03T01:58:12.513Z,10.70
2023-01-03T02:00:42.122Z,10.60
2023-01-03T02:03:10.828Z,10.60
2023-01-03T02:05:42.355Z,10.60
2023-01-03T02:08:09.721Z,10.50
2023-01-03T02:10:54.128Z,10.50
2023-01-03T02:13:36.872Z,10.40
2023-01-03T02:16:26.923Z,10.40
2023-01-03T02:19:16.205Z,10.40
2023-01-03T02:22:03.228Z,10.30
2023-01-03T02:24:55.218Z,10.30
2023-01-03T02:27:53.522Z,10.30
2023-01-03T02:30:38.130Z,10.20
2023-01-03T02:33:30.419Z,10.20
2023-01-03T02:36:09.976Z,10.10
2023-01-03T02:39:03.864Z,10.00
2023-01-03T02:42:17.076Z,10.00
2023-01-03T02:45:02.831Z,10.00
2023-01-03T02:47:35.352Z,10.00
2023-01-03T02:50:06.213Z,10.00
2023-01-03T02:52:37.012Z,9.90
2023-01-03T02:55:24.143Z,10.00
2023-01-03T02:58:00.908Z,10.00
2023-01-03T03:00:30.422Z,10.00
2023-01-03T03:03:04.238Z,10.00
2023-01-03T03:05:43.805Z,10.10
2023-01-03T03:08:11.536Z,10.10
2023-01-03T03:10:58.838Z,10.20
2023-01-03T03:13:37.008Z,10.20
2023-01-03T03:16:11.219Z,10.30
2023-01-03T03:19:01.022Z,10.30
2023-01-03T03:21:58.404Z,10.30
2023-01-03T03:24:49.325Z,10.40
2023-01-03T03:27:40.545Z,10.40
2023-01-03T03:30:12.068Z,10.50
2023-01-03T03:32:41.616Z,10.50
2023-01-03T03:35:12.549Z,10.60
2023-01-03T03:37:42.902Z,10.60
2023-01-03T03:40:29.504Z,10.60
2023-01-03T03:43:23.913Z,10.70
2023-01-03T03:46:02.770Z,10.70
2023-01-03T03:49:02.739Z,10.80
2023-01-03T03:51:34.074Z,10.70
2023-01-03T03:54:05.987Z,10.70
2023-01-03T03:56:36.435Z,10.70
2023-01-03T03:59:07.115Z,10.70
2023-01-03T04:01:38.837Z,10.70
2023-01-03T04:04:11.371Z,10.70
2023-01-03T04:06:48.616Z,10.70
2023-01-03T04:09:16.598Z,10.70
2023-01-03T04:11:43.977Z,10.60
2023-01-03T04:14:11.725Z,10.60
2023-01-03T04:16:40.859Z,10.60
2023-01-03T04:19:08.520Z,10.60
2023-01-03T04:21:36.680Z,10.60
2023-01-03T04:24:04.944Z,10.50
2023-01-03T04:26:32.767Z,10.50
2023-01-03T04:29:00.182Z,10.50
2023-01-03T04:31:27.636Z,10.50
2023-01-03T04:33:55.014Z,10.50
2023-01-03T04:36:22.379Z,10.50
2023-01-03T04:38:49.721Z,10.50
2023-01-03T04:41:17.149Z,10.50
2023-01-03T04:44:03.117Z,10.50
2023-01-03T04:46:35.897Z,10.50
2023-01-03T04:49:05.126Z,10.40
2023-01-03T04:51:33.473Z,10.40
2023-01-03T04:54:00.910Z,10.40
2023-01-03T04:56:31.563Z,10.30
2023-01-03T04:58:59.110Z,10.30
2023-01-03T05:01:26.718Z,10.20
2023-01-03T05:03:59.734Z,10.20
2023-01-03T05:06:28.316Z,10.10
2023-01-03T05:08:56.327Z,10.10
2023-01-03T05:11:24.277Z,10.00
2023-01-03T05:13:51.595Z,10.00
2023-01-03T05:16:18.980Z,9.90
2023-01-03T05:18:47.994Z,9.90
2023-01-03T05:21:37.313Z,9.80
2023-01-03T05:24:24.392Z,9.70
2023-01-03T05:26:52.403Z,9.70
2023-01-03T05:29:21.606Z,9.50
2023-01-03T05:31:49.494Z,9.50
2023-01-03T05:34:16.937Z,9.40
2023-01-03T05:36:44.433Z,9.30
2023-01-03T05:39:12.204Z,9.20
2023-01-03T05:41:58.204Z,9.10
2023-01-03T05:44:26.191Z,9.10
2023-01-03T05:46:53.595Z,9.00
2023-01-03T05:49:20.833Z,8.90
2023-01-03T05:51:48.112Z,8.80
2023-01-03T05:54:17.212Z,8.80
2023-01-03T05:56:44.692Z,8.70
2023-01-03T05:59:12.753Z,8.60
2023-01-03T06:01:40.048Z,8.60
2023-01-03T06:04:07.487Z,8.50
2023-01-03T06:06:35.041Z,8.50
2023-01-03T06:09:02.452Z,8.40
2023-01-03T06:11:29.877Z,8.30
2023-01-03T06:13:57.342Z,8.30
2023-01-03T06:16:44.346Z,8.30
2023-01-03T06:19:11.892Z,8.20
2023-01-03T06:21:41.376Z,8.20
2023-01-03T06:24:09.519Z,8.20
2023-01-03T06:26:37.774Z,8.10
2023-01-03T06:29:05.947Z,8.10
2023-01-03T06:31:33.883Z,8.10
2023-01-03T06:34:01.423Z,8.10
2023-01-03T06:36:29.226Z,8.00
2023-01-03T06:38:57.981Z,8.00
2023-01-03T06:41:26.357Z,8.00
2023-01-03T06:43:54.687Z,8.00
2023-01-03T06:46:40.733Z,8.00
2023-01-03T06:49:34.312Z,8.00
2023-01-03T06:52:22.592Z,8.10
2023-01-03T06:54:50.092Z,8.10
2023-01-03T06:57:25.520Z,8.10
2023-01-03T06:59:55.265Z,8.10
2023-01-03T07:02:23.087Z,8.10
2023-01-03T07:04:50.783Z,8.10
2023-01-03T07:07:18.246Z,8.10
2023-01-03T07:09:45.589Z,8.00
2023-01-03T07:12:31.847Z,8.00
2023-01-03T07:14:59.552Z,8.10
2023-01-03T07:17:26.985Z,8.00
2023-01-03T07:19:54.375Z,8.10
2023-01-03T07:22:21.755Z,8.10
2023-01-03T07:24:49.133Z,8.10
2023-01-03T07:27:16.523Z,8.10
2023-01-03T07:29:43.977Z,8.00
2023-01-03T07:32:11.396Z,8.00
2023-01-03T07:34:38.828Z,8.00
2023-01-03T07:37:06.210Z,7.90
2023-01-03T07:39:33.549Z,7.90
2023-01-03T07:42:19.929Z,7.90
2023-01-03T07:44:47.497Z,7.90
2023-01-03T07:47:14.910Z,7.90
2023-01-03T07:49:42.322Z,7.90
2023-01-03T07:52:09.731Z,7.80
2023-01-03T07:54:37.115Z,7.80
2023-01-03T07:57:04.492Z,7.80
2023-01-03T07:59:31.837Z,7.80
2023-01-03T08:01:59.283Z,7.80
2023-01-03T08:04:26.762Z,7.90
2023-01-03T08:06:54.133Z,7.90
2023-01-03T08:09:40.374Z,8.00
2023-01-03T08:12:27.755Z,8.10
2023-01-03T08:14:55.080Z,8.10
2023-01-03T08:17:22.311Z,8.20
2023-01-03T08:19:49.630Z,8.20
2023-01-03T08:22:16.977Z,8.30
2023-01-03T08:24:44.198Z,8.40
2023-01-03T08:27:11.538Z,8.40
2023-01-03T08:29:38.754Z,8.50
2023-01-03T08:32:06.832Z,8.60
2023-01-03T08:34:37.488Z,8.70
2023-01-03T08:37:10.939Z,8.80
2023-01-03T08:39:50.308Z,9.00
2023-01-03T08:42:21.041Z,9.10
2023-01-03T08:44:50.267Z,9.20
2023-01-03T08:47:18.083Z,9.40
2023-01-03T08:49:45.656Z,9.50
2023-01-03T08:52:13.060Z,9.60
2023-01-03T08:54:40.698Z,9.70
2023-01-03T08:57:08.075Z,9.90
2023-01-03T08:59:35.586Z,10.00
2023-01-03T09:02:03.609Z,10.20
2023-01-03T09:04:31.334Z,10.30
2023-01-03T09:06:58.740Z,10.40
2023-01-03T09:09:26.108Z,10.50
2023-01-03T09:11:53.521Z,10.60
2023-01-03T09:14:21.007Z,10.70
2023-01-03T09:16:49.456Z,10.80
2023-01-03T09:19:17.478Z,10.80
2023-01-03T09:21:44.990Z,10.90
2023-01-03T09:24:12.475Z,11.00
2023-01-03T09:26:40.052Z,11.10
2023-01-03T09:29:07.506Z,11.20
2023-01-03T09:31:39.822Z,11.20
2023-01-03T09:34:07.824Z,11.30
2023-01-03T09:36:37.145Z,11.40
2023-01-03T09:39:05.195Z,11.50
2023-01-03T09:41:33.433Z,11.50
2023-01-03T09:44:06.545Z,11.60
2023-01-03T09:46:37.762Z,11.60
2023-01-03T09:49:07.167Z,11.70
2023-01-03T09:52:01.808Z,11.70
2023-01-03T09:54:53.503Z,11.70
2023-01-03T09:57:51.316Z,11.80
2023-01-03T10:00:53.916Z,11.80
2023-01-03T10:03:51.041Z,11.80
2023-01-03T10:06:31.052Z,11.80
2023-01-03T10:09:28.696Z,11.80
2023-01-03T10:12:16.989Z,11.70
2023-01-03T10:15:03.492Z,11.70
2023-01-03T10:17:41.479Z,11.70
2023-01-03T10:20:30.965Z,11.60
2023-01-03T10:23:01.209Z,11.60
2023-01-03T10:25:30.358Z,11.50
2023-01-03T10:28:09.943Z,11.50
2023-01-03T10:31:07.976Z,11.40
2023-01-03T10:33:41.284Z,11.40
2023-01-03T10:36:09.509Z,11.40
2023-01-03T10:38:46.221Z,11.40
2023-01-03T10:41:47.313Z,11.30
2023-01-03T10:44:30.919Z,11.30
2023-01-03T10:47:16.940Z,11.30
2023-01-03T10:49:47.255Z,11.30
2023-01-03T10:52:18.280Z,11.30
2023-01-03T10:54:59.175Z,11.30
2023-01-03T10:57:46.391Z,11.30
2023-01-03T11:00:32.362Z,11.40
2023-01-03T11:03:09.678Z,11.40
2023-01-03T11:05:38.690Z,11.40
2023-01-03T11:08:15.553Z,11.40
2023-01-03T11:10:55.237Z,11.40
2023-01-03T11:13:24.240Z,11.50
2023-01-03T11:16:00.316Z,11.50
2023-01-03T11:18:29.129Z,11.50
2023-01-03T11:21:23.463Z,11.50
2023-01-03T11:23:58.365Z,11.50
2023-01-03T11:26:40.768Z,11.60
2023-01-03T11:29:26.626Z,11.60
2023-01-03T11:32:25.274Z,11.70
2023-01-03T11:35:33.234Z,11.80
2023-01-03T11:38:11.377Z,11.90
2023-01-03T11:41:05.169Z,12.10
2023-01-03T11:43:50.345Z,12.10
2023-01-03T11:46:45.638Z,12.20
2023-01-03T11:49:47.903Z,12.20
2023-01-03T11:52:30.159Z,12.20
2023-01-03T11:55:14.116Z,12.20
2023-01-03T11:58:05.886Z,12.20
2023-01-03T12:00:53.336Z,12.20
2023-01-03T12:03:49.008Z,12.10
2023-01-03T12:06:50.542Z,12.10
2023-01-03T12:09:59.749Z,12.00
2023-01-03T12:12:40.543Z,12.00
2023-01-03T12:15:26.609Z,12.00
2023-01-03T12:17:59.547Z,11.90
2023-01-03T12:20:36.021Z,11.90
2023-01-03T12:23:15.754Z,12.00
2023-01-03T12:25:48.749Z,12.00
2023-01-03T12:28:40.801Z,12.10
2023-01-03T12:31:18.466Z,12.20
2023-01-03T12:33:55.814Z,12.30
2023-01-03T12:36:48.746Z,12.40
2023-01-03T12:39:38.274Z,12.40
2023-01-03T12:42:20.437Z,12.50
2023-01-03T12:44:55.315Z,12.60
2023-01-03T12:47:35.998Z,12.50
2023-01-03T12:50:21.054Z,12.50
2023-01-03T12:52:58.814Z,12.50
2023-01-03T12:55:44.400Z,12.40
2023-01-03T12:58:39.708Z,12.40
2023-01-03T13:01:11.694Z,12.40
2023-01-03T13:03:54.520Z,12.40
2023-01-03T13:06:31.105Z,12.40
2023-01-03T13:09:04.455Z,12.40
2023-01-03T13:11:36.834Z,12.40
2023-01-03T13:14:17.721Z,12.40
2023-01-03T13:16:49.659Z,12.50
2023-01-03T13:19:20.188Z,12.60
2023-01-03T13:21:53.436Z,12.60
2023-01-03T13:24:51.208Z,12.60
2023-01-03T13:27:25.036Z,12.60
2023-01-03T13:29:53.089Z,12.60
2023-01-03T13:32:21.637Z,12.60
2023-01-03T13:35:15.993Z,12.60
2023-01-03T13:37:51.278Z,12.60
2023-01-03T13:41:07.547Z,12.60
2023-01-03T13:43:26.706Z,12.60
2023-01-03T13:45:57.428Z,12.60
2023-01-03T13:48:38.630Z,12.60
2023-01-03T13:51:06.290Z,12.60
2023-01-03T13:53:58.894Z,12.70
2023-01-03T13:56:49.327Z,12.60
2023-01-03T13:59:19.655Z,12.60
2023-01-03T14:02:21.213Z,12.70
2023-01-03T14:05:13.004Z,12.60
2023-01-03T14:08:05.455Z,12.60
2023-01-03T14:10:54.904Z,12.50
2023-01-03T14:13:37.813Z,12.50
2023-01-03T14:16:11.681Z,12.40
2023-01-03T14:18:40.950Z,12.30
2023-01-03T14:21:15.410Z,12.20
2023-01-03T14:24:01.892Z,12.10
2023-01-03T14:26:31.793Z,11.90
2023-01-03T14:29:00.338Z,11.80
2023-01-03T14:31:28.623Z,11.70
2023-01-03T14:33:59.287Z,11.60
2023-01-03T14:36:27.530Z,11.60
2023-01-03T14:38:59.757Z,11.50
2023-01-03T14:41:34.351Z,11.40
2023-01-03T14:44:03.238Z,11.30
2023-01-03T14:46:31.632Z,11.20
2023-01-03T14:49:03.693Z,11.20
2023-01-03T14:51:36.807Z,11.10
2023-01-03T14:54:05.325Z,11.00
2023-01-03T14:56:33.276Z,11.00
2023-01-03T14:59:01.476Z,10.90
2023-01-03T15:01:29.509Z,10.80
2023-01-03T15:03:57.468Z,10.70
2023-01-03T15:06:29.111Z,10.70
2023-01-03T15:09:12.175Z,10.60
2023-01-03T15:11:56.486Z,10.60
2023-01-03T15:14:29.501Z,10.50
2023-01-03T15:17:04.408Z,10.50
2023-01-03T15:19:33.833Z,10.50
2023-01-03T15:22:08.907Z,10.40
2023-01-03T15:24:43.366Z,10.40
2023-01-03T15:27:39.566Z,10.40
2023-01-03T15:30:27.124Z,10.40
2023-01-03T15:32:56.847Z,10.40
2023-01-03T15:35:36.900Z,10.40
2023-01-03T15:38:28.368Z,10.40
2023-01-03T15:40:55.889Z,10.40
2023-01-03T15:43:31.761Z,10.30
2023-01-03T15:46:05.578Z,10.30
2023-01-03T15:48:37.184Z,10.30
2023-01-03T15:51:05.610Z,10.30
2023-01-03T15:53:43.322Z,10.30
2023-01-03T15:56:31.892Z,10.20
2023-01-03T15:59:03.294Z,10.20
2023-01-03T16:01:30.821Z,10.10
2023-01-03T16:03:58.353Z,10.10
2023-01-03T16:06:25.770Z,10.10
2023-01-03T16:08:53.256Z,10.10
2023-01-03T16:11:31.474Z,10.00
2023-01-03T16:14:04.953Z,10.00
2023-01-03T16:16:37.947Z,10.00
2023-01-03T16:19:06.295Z,9.90
2023-01-03T16:21:34.047Z,9.80
2023-01-03T16:24:02.645Z,9.70
2023-01-03T16:26:30.101Z,9.60
2023-01-03T16:28:59.235Z,9.50
2023-01-03T16:31:34.938Z,9.50
2023-01-03T16:34:04.704Z,9.40
2023-01-03T16:36:37.968Z,9.30
2023-01-03T16:39:13.309Z,9.30
2023-01-03T16:41:40.820Z,9.20
2023-01-03T16:44:08.353Z,9.20
2023-01-03T16:46:37.568Z,9.20
2023-01-03T16:49:06.068Z,9.20
2023-01-03T16:51:36.103Z,9.20
2023-01-03T16:54:08.166Z,9.20
2023-01-03T16:56:35.586Z,9.10
2023-01-03T16:59:03.162Z,9.10
2023-01-03T17:01:30.682Z,9.10
2023-01-03T17:03:58.272Z,9.10
2023-01-03T17:06:37.899Z,9.00
2023-01-03T17:09:15.081Z,9.00
2023-01-03T17:11:43.721Z,8.90
2023-01-03T17:14:20.443Z,8.80
2023-01-03T17:16:49.114Z,8.80
2023-01-03T17:20:02.202Z,8.70
2023-01-03T17:22:16.547Z,8.70
2023-01-03T17:24:44.357Z,8.60
2023-01-03T17:27:24.951Z,8.60
2023-01-03T17:30:00.274Z,8.60
2023-01-03T17:32:28.413Z,8.50
2023-01-03T17:34:55.838Z,8.50
2023-01-03T17:37:23.517Z,8.50
2023-01-03T17:39:56.396Z,8.60
2023-01-03T17:42:26.505Z,8.60
2023-01-03T17:45:12.379Z,8.60
2023-01-03T17:48:01.450Z,8.60
2023-01-03T17:50:31.609Z,8.60
2023-01-03T17:53:00.728Z,8.60
2023-01-03T17:55:30.139Z,8.60
2023-01-03T17:58:01.659Z,8.60
2023-01-03T18:00:30.236Z,8.60
2023-01-03T18:03:00.266Z,8.70
2023-01-03T18:05:29.785Z,8.70
2023-01-03T18:08:00.217Z,8.70
2023-01-03T18:10:43.853Z,8.80
2023-01-03T18:13:28.812Z,8.80
2023-01-03T18:15:56.948Z,8.90
2023-01-03T18:18:25.903Z,8.90
2023-01-03T18:20:54.367Z,8.90
2023-01-03T18:23:32.825Z,8.90
2023-01-03T18:26:02.999Z,9.00
2023-01-03T18:28:30.696Z,8.90
2023-01-03T18:30:58.348Z,9.00
2023-01-03T18:33:26.025Z,9.00
2023-01-03T18:35:53.846Z,9.00
2023-01-03T18:38:29.401Z,9.00
2023-01-03T18:41:02.490Z,9.00
2023-01-03T18:43:32.936Z,9.00
2023-01-03T18:46:00.681Z,9.00
2023-01-03T18:48:28.013Z,9.00
2023-01-03T18:50:59.361Z,9.00
2023-01-03T18:53:33.756Z,9.00
2023-01-03T18:56:02.367Z,9.00
2023-01-03T18:58:39.561Z,8.90
2023-01-03T19:01:07.267Z,8.90
2023-01-03T19:03:35.921Z,8.90
2023-01-03T19:06:13.596Z,8.90
2023-01-03T19:08:40.901Z,8.90
2023-01-03T19:11:19.475Z,8.90
2023-01-03T19:13:50.412Z,8.80
2023-01-03T19:16:24.388Z,8.80
2023-01-03T19:18:52.836Z,8.80
2023-01-03T19:21:21.984Z,8.70
2023-01-03T19:24:05.772Z,8.70
2023-01-03T19:26:39.161Z,8.70
2023-01-03T19:29:10.666Z,8.60
2023-01-03T19:31:44.099Z,8.60
2023-01-03T19:34:19.403Z,8.60
2023-01-03T19:36:47.269Z,8.60
2023-01-03T19:39:15.681Z,8.50
2023-01-03T19:42:20.756Z,8.50
2023-01-03T19:44:49.203Z,8.50
2023-01-03T19:47:19.878Z,8.40
2023-01-03T19:49:48.047Z,8.40
2023-01-03T19:52:16.607Z,8.40
2023-01-03T19:54:44.440Z,8.30
2023-01-03T19:57:21.874Z,8.30
2023-01-03T19:59:54.116Z,8.30
2023-01-03T20:02:39.612Z,8.20
2023-01-03T20:05:24.703Z,8.20
2023-01-03T20:07:52.708Z,8.20
2023-01-03T20:10:26.997Z,8.10
2023-01-03T20:12:57.643Z,8.10
2023-01-03T20:15:32.822Z,8.10
2023-01-03T20:18:00.300Z,8.10
2023-01-03T20:20:30.783Z,8.20
2023-01-03T20:23:06.866Z,8.20
2023-01-03T20:25:36.876Z,8.20
2023-01-03T20:28:04.924Z,8.30
2023-01-03T20:30:34.163Z,8.30
2023-01-03T20:33:01.624Z,8.30
2023-01-03T20:38:24.915Z,8.40
2023-01-03T20:40:56.493Z,8.40
2023-01-03T20:43:24.772Z,8.40
2023-01-03T20:45:57.607Z,8.40
2023-01-03T20:48:26.558Z,8.40
2023-01-03T20:50:54.903Z,8.40
2023-01-03T20:53:25.097Z,8.30
2023-01-03T20:55:53.375Z,8.30
2023-01-03T20:58:28.327Z,8.30
2023-01-03T21:01:04.262Z,8.30
2023-01-03T21:03:33.772Z,8.30
2023-01-03T21:06:02.261Z,8.40
2023-01-03T21:08:48.854Z,8.40
2023-01-03T21:11:16.369Z,8.40
2023-01-03T21:13:43.880Z,8.40
2023-01-03T21:16:39.462Z,8.40
2023-01-03T21:19:17.237Z,8.30
2023-01-03T21:21:47.056Z,8.30
2023-01-03T21:24:16.505Z,8.20
2023-01-03T21:26:44.262Z,8.20
2023-01-03T21:29:11.882Z,8.20
2023-01-03T21:31:42.356Z,8.10
2023-01-03T21:34:17.171Z,8.10
2023-01-03T21:36:44.754Z,8.10
2023-01-03T21:39:11.986Z,8.00
2023-01-03T21:42:00.353Z,8.00
2023-01-03T21:44:27.852Z,7.90
2023-01-03T21:46:55.295Z,7.90
2023-01-03T21:49:22.867Z,7.90
2023-01-03T21:51:50.325Z,7.90
2023-01-03T21:54:18.401Z,7.80
2023-01-03T21:56:47.030Z,7.80
2023-01-03T21:59:16.121Z,7.80
2023-01-03T22:02:03.953Z,7.80
2023-01-03T22:04:32.585Z,7.70
2023-01-03T22:07:02.995Z,7.70
2023-01-03T22:09:49.970Z,7.70
2023-01-03T22:12:18.968Z,7.70
2023-01-03T22:14:46.931Z,7.70
2023-01-03T22:17:16.495Z,7.60
2023-01-03T22:19:43.974Z,7.60
2023-01-03T22:22:11.400Z,7.60
2023-01-03T22:24:38.753Z,7.50
2023-01-03T22:27:06.233Z,7.50
2023-01-03T22:29:33.558Z,7.50
2023-01-03T22:32:01.052Z,7.50
2023-01-03T22:34:28.418Z,7.50
2023-01-03T22:36:55.752Z,7.50
2023-01-03T22:39:23.100Z,7.40
2023-01-03T22:41:50.424Z,7.40
2023-01-03T22:44:17.777Z,7.40
2023-01-03T22:46:45.104Z,7.40
2023-01-03T22:49:12.576Z,7.40
2023-01-03T22:51:40.169Z,7.30
2023-01-03T22:54:07.796Z,7.30
2023-01-03T22:56:35.246Z,7.30
2023-01-03T22:59:02.647Z,7.30
2023-01-03T23:01:30.170Z,7.30
2023-01-03T23:04:03.351Z,7.20
2023-01-03T23:06:32.851Z,7.20
2023-01-03T23:09:01.754Z,7.10
2023-01-03T23:11:49.938Z,7.10
2023-01-03T23:14:20.247Z,7.10
2023-01-03T23:16:48.664Z,7.10
2023-01-03T23:19:18.019Z,7.00
2023-01-03T23:21:45.953Z,7.00
2023-01-03T23:24:18.915Z,7.00
2023-01-03T23:26:46.535Z,7.00
2023-01-03T23:29:16.653Z,6.90
2023-01-03T23:31:44.666Z,6.90
2023-01-03T23:34:12.842Z,6.90
2023-01-03T23:36:42.840Z,6.80
2023-01-03T23:39:15.870Z,6.80
2023-01-03T23:41:43.737Z,6.80
2023-01-03T23:44:11.201Z,6.70
2023-01-03T23:46:38.530Z,6.70
2023-01-03T23:49:06.079Z,6.70
2023-01-03T23:51:33.426Z,6.70
2023-01-03T23:54:00.649Z,6.70
2023-01-03T23:56:28.048Z,6.60
2023-01-03T23:58:55.394Z,6.60
